sensor_id;sensor_type;location;lat;lon;timestamp;P1;durP1;ratioP1;P2;durP2;ratioP2
65799;SDS011;52544;48.116;11.660;2023-05-14T00:02:19;21.95;;;11.40;;
65799;SDS011;52544;48.116;11.660;2023-05-14T00:04:45;22.00;;;11.63;;
65799;SDS011;52544;48.116;11.660;2023-05-14T00:07:10;23.02;;;11.52;;
65799;SDS011;52544;48.116;11.660;2023-05-14T00:09:36;20.90;;;11.70;;
65799;SDS011;52544;48.116;11.660;2023-05-14T00:12:01;20.40;;;11.35;;
65799;SDS011;52544;48.116;11.660;2023-05-14T00:14:26;20.95;;;11.10;;
65799;SDS011;52544;48.116;11.660;2023-05-14T00:16:52;21.65;;;11.80;;
65799;SDS011;52544;48.116;11.660;2023-05-14T00:19:17;20.02;;;11.13;;
65799;SDS011;52544;48.116;11.660;2023-05-14T00:21:43;20.65;;;10.90;;
65799;SDS011;52544;48.116;11.660;2023-05-14T00:24:08;20.95;;;11.23;;
65799;SDS011;52544;48.116;11.660;2023-05-14T00:26:33;21.35;;;11.25;;
65799;SDS011;52544;48.116;11.660;2023-05-14T00:28:59;20.65;;;11.80;;
65799;SDS011;52544;48.116;11.660;2023-05-14T00:31:24;24.23;;;11.85;;
65799;SDS011;52544;48.116;11.660;2023-05-14T00:33:50;18.98;;;11.10;;
65799;SDS011;52544;48.116;11.660;2023-05-14T00:36:16;22.35;;;11.63;;
65799;SDS011;52544;48.116;11.660;2023-05-14T00:38:41;22.63;;;11.70;;
65799;SDS011;52544;48.116;11.660;2023-05-14T00:41:07;21.45;;;10.70;;
65799;SDS011;52544;48.116;11.660;2023-05-14T00:43:32;22.52;;;11.30;;
65799;SDS011;52544;48.116;11.660;2023-05-14T00:45:58;23.05;;;11.68;;
65799;SDS011;52544;48.116;11.660;2023-05-14T00:48:24;24.38;;;12.38;;
65799;SDS011;52544;48.116;11.660;2023-05-14T00:50:50;22.73;;;11.85;;
65799;SDS011;52544;48.116;11.660;2023-05-14T00:53:16;22.92;;;11.77;;
65799;SDS011;52544;48.116;11.660;2023-05-14T00:55:43;24.48;;;12.45;;
65799;SDS011;52544;48.116;11.660;2023-05-14T00:58:10;21.60;;;11.55;;
65799;SDS011;52544;48.116;11.660;2023-05-14T01:00:38;21.50;;;11.98;;
65799;SDS011;52544;48.116;11.660;2023-05-14T01:03:04;25.02;;;12.38;;
65799;SDS011;52544;48.116;11.660;2023-05-14T01:05:55;21.48;;;11.27;;
65799;SDS011;52544;48.116;11.660;2023-05-14T01:14:30;24.77;;;13.30;;
65799;SDS011;52544;48.116;11.660;2023-05-14T01:17:05;24.40;;;12.95;;
65799;SDS011;52544;48.116;11.660;2023-05-14T01:19:38;22.25;;;12.27;;
65799;SDS011;52544;48.116;11.660;2023-05-14T01:22:05;25.92;;;13.00;;
65799;SDS011;52544;48.116;11.660;2023-05-14T01:24:31;25.92;;;12.65;;
65799;SDS011;52544;48.116;11.660;2023-05-14T01:27:02;24.90;;;12.90;;
65799;SDS011;52544;48.116;11.660;2023-05-14T01:29:35;24.98;;;13.48;;
65799;SDS011;52544;48.116;11.660;2023-05-14T01:32:05;22.42;;;11.95;;
65799;SDS011;52544;48.116;11.660;2023-05-14T01:34:34;25.25;;;12.93;;
65799;SDS011;52544;48.116;11.660;2023-05-14T01:37:01;25.75;;;12.65;;
65799;SDS011;52544;48.116;11.660;2023-05-14T01:39:29;25.92;;;12.23;;
65799;SDS011;52544;48.116;11.660;2023-05-14T01:41:56;26.02;;;12.82;;
65799;SDS011;52544;48.116;11.660;2023-05-14T01:44:23;25.58;;;12.68;;
65799;SDS011;52544;48.116;11.660;2023-05-14T01:46:49;22.98;;;11.95;;
65799;SDS011;52544;48.116;11.660;2023-05-14T01:49:15;23.52;;;11.68;;
65799;SDS011;52544;48.116;11.660;2023-05-14T01:51:42;21.98;;;11.45;;
65799;SDS011;52544;48.116;11.660;2023-05-14T01:54:07;23.38;;;12.60;;
65799;SDS011;52544;48.116;11.660;2023-05-14T01:56:33;25.88;;;12.38;;
65799;SDS011;52544;48.116;11.660;2023-05-14T01:58:58;22.40;;;12.25;;
65799;SDS011;52544;48.116;11.660;2023-05-14T02:01:24;22.02;;;11.38;;
65799;SDS011;52544;48.116;11.660;2023-05-14T02:03:50;21.83;;;11.95;;
65799;SDS011;52544;48.116;11.660;2023-05-14T02:06:15;21.60;;;11.93;;
65799;SDS011;52544;48.116;11.660;2023-05-14T02:08:41;18.42;;;11.45;;
65799;SDS011;52544;48.116;11.660;2023-05-14T02:11:06;25.35;;;12.82;;
65799;SDS011;52544;48.116;11.660;2023-05-14T02:13:31;21.98;;;11.32;;
65799;SDS011;52544;48.116;11.660;2023-05-14T02:15:57;21.80;;;11.77;;
65799;SDS011;52544;48.116;11.660;2023-05-14T02:18:22;20.80;;;11.27;;
65799;SDS011;52544;48.116;11.660;2023-05-14T02:20:48;24.08;;;11.82;;
65799;SDS011;52544;48.116;11.660;2023-05-14T02:23:13;25.33;;;11.82;;
65799;SDS011;52544;48.116;11.660;2023-05-14T02:25:38;23.08;;;11.63;;
65799;SDS011;52544;48.116;11.660;2023-05-14T02:28:04;25.30;;;12.70;;
65799;SDS011;52544;48.116;11.660;2023-05-14T02:30:29;20.55;;;11.35;;
65799;SDS011;52544;48.116;11.660;2023-05-14T02:32:55;24.35;;;12.10;;
65799;SDS011;52544;48.116;11.660;2023-05-14T02:35:21;28.98;;;13.48;;
65799;SDS011;52544;48.116;11.660;2023-05-14T02:37:46;31.10;;;14.35;;
65799;SDS011;52544;48.116;11.660;2023-05-14T02:40:12;26.83;;;13.77;;
65799;SDS011;52544;48.116;11.660;2023-05-14T02:42:37;28.58;;;13.52;;
65799;SDS011;52544;48.116;11.660;2023-05-14T02:45:03;26.77;;;12.93;;
65799;SDS011;52544;48.116;11.660;2023-05-14T02:47:28;30.10;;;14.60;;
65799;SDS011;52544;48.116;11.660;2023-05-14T02:49:54;26.30;;;13.27;;
65799;SDS011;52544;48.116;11.660;2023-05-14T02:52:19;29.85;;;13.32;;
65799;SDS011;52544;48.116;11.660;2023-05-14T02:54:45;32.33;;;14.77;;
65799;SDS011;52544;48.116;11.660;2023-05-14T02:57:10;33.13;;;13.40;;
65799;SDS011;52544;48.116;11.660;2023-05-14T02:59:35;26.65;;;13.73;;
65799;SDS011;52544;48.116;11.660;2023-05-14T03:02:01;27.10;;;13.27;;
65799;SDS011;52544;48.116;11.660;2023-05-14T03:04:26;31.85;;;14.13;;
65799;SDS011;52544;48.116;11.660;2023-05-14T03:06:52;29.55;;;13.73;;
65799;SDS011;52544;48.116;11.660;2023-05-14T03:09:17;28.60;;;13.85;;
65799;SDS011;52544;48.116;11.660;2023-05-14T03:11:42;27.42;;;13.52;;
65799;SDS011;52544;48.116;11.660;2023-05-14T03:14:08;30.90;;;14.68;;
65799;SDS011;52544;48.116;11.660;2023-05-14T03:16:33;27.50;;;13.85;;
65799;SDS011;52544;48.116;11.660;2023-05-14T03:18:58;33.08;;;15.10;;
65799;SDS011;52544;48.116;11.660;2023-05-14T03:21:24;33.50;;;14.70;;
65799;SDS011;52544;48.116;11.660;2023-05-14T03:23:51;29.40;;;15.38;;
65799;SDS011;52544;48.116;11.660;2023-05-14T03:26:16;33.35;;;15.35;;
65799;SDS011;52544;48.116;11.660;2023-05-14T03:28:42;30.48;;;14.40;;
65799;SDS011;52544;48.116;11.660;2023-05-14T03:31:08;28.13;;;14.73;;
65799;SDS011;52544;48.116;11.660;2023-05-14T03:33:33;31.13;;;15.85;;
65799;SDS011;52544;48.116;11.660;2023-05-14T03:35:59;30.38;;;15.75;;
65799;SDS011;52544;48.116;11.660;2023-05-14T03:38:24;30.67;;;13.98;;
65799;SDS011;52544;48.116;11.660;2023-05-14T03:40:49;38.30;;;15.77;;
65799;SDS011;52544;48.116;11.660;2023-05-14T03:43:15;32.15;;;14.88;;
65799;SDS011;52544;48.116;11.660;2023-05-14T03:45:40;33.83;;;15.23;;
65799;SDS011;52544;48.116;11.660;2023-05-14T03:48:06;31.60;;;15.02;;
65799;SDS011;52544;48.116;11.660;2023-05-14T03:50:31;32.40;;;15.77;;
65799;SDS011;52544;48.116;11.660;2023-05-14T03:52:56;32.88;;;15.80;;
65799;SDS011;52544;48.116;11.660;2023-05-14T03:55:22;33.30;;;15.80;;
65799;SDS011;52544;48.116;11.660;2023-05-14T03:57:47;35.00;;;15.68;;
65799;SDS011;52544;48.116;11.660;2023-05-14T04:00:13;33.15;;;15.23;;
65799;SDS011;52544;48.116;11.660;2023-05-14T04:02:39;33.95;;;15.50;;
65799;SDS011;52544;48.116;11.660;2023-05-14T04:05:04;33.30;;;15.88;;
65799;SDS011;52544;48.116;11.660;2023-05-14T04:07:30;28.58;;;14.48;;
65799;SDS011;52544;48.116;11.660;2023-05-14T04:09:55;35.60;;;15.25;;
65799;SDS011;52544;48.116;11.660;2023-05-14T04:12:20;34.10;;;15.93;;
65799;SDS011;52544;48.116;11.660;2023-05-14T04:14:46;37.25;;;15.98;;
65799;SDS011;52544;48.116;11.660;2023-05-14T04:17:11;30.35;;;15.57;;
65799;SDS011;52544;48.116;11.660;2023-05-14T04:19:37;34.97;;;15.75;;
65799;SDS011;52544;48.116;11.660;2023-05-14T04:22:03;33.13;;;15.48;;
65799;SDS011;52544;48.116;11.660;2023-05-14T04:24:29;28.85;;;14.98;;
65799;SDS011;52544;48.116;11.660;2023-05-14T04:26:54;35.20;;;16.60;;
65799;SDS011;52544;48.116;11.660;2023-05-14T04:29:20;36.05;;;16.92;;
65799;SDS011;52544;48.116;11.660;2023-05-14T04:31:45;34.13;;;15.95;;
65799;SDS011;52544;48.116;11.660;2023-05-14T04:34:10;34.47;;;15.75;;
65799;SDS011;52544;48.116;11.660;2023-05-14T04:36:36;38.55;;;17.35;;
65799;SDS011;52544;48.116;11.660;2023-05-14T04:39:01;39.47;;;16.52;;
65799;SDS011;52544;48.116;11.660;2023-05-14T04:41:27;36.97;;;16.50;;
65799;SDS011;52544;48.116;11.660;2023-05-14T04:43:54;40.35;;;16.95;;
65799;SDS011;52544;48.116;11.660;2023-05-14T04:46:20;36.30;;;15.88;;
65799;SDS011;52544;48.116;11.660;2023-05-14T04:48:46;34.75;;;16.00;;
65799;SDS011;52544;48.116;11.660;2023-05-14T04:51:12;36.20;;;17.38;;
65799;SDS011;52544;48.116;11.660;2023-05-14T04:53:38;31.13;;;15.68;;
65799;SDS011;52544;48.116;11.660;2023-05-14T04:56:04;35.92;;;16.13;;
65799;SDS011;52544;48.116;11.660;2023-05-14T04:58:30;34.97;;;16.42;;
65799;SDS011;52544;48.116;11.660;2023-05-14T05:00:56;37.35;;;17.15;;
65799;SDS011;52544;48.116;11.660;2023-05-14T05:03:23;41.25;;;16.95;;
65799;SDS011;52544;48.116;11.660;2023-05-14T05:05:48;39.33;;;17.23;;
65799;SDS011;52544;48.116;11.660;2023-05-14T05:08:13;38.22;;;17.15;;
65799;SDS011;52544;48.116;11.660;2023-05-14T05:10:39;42.00;;;16.88;;
65799;SDS011;52544;48.116;11.660;2023-05-14T05:13:04;38.83;;;17.27;;
65799;SDS011;52544;48.116;11.660;2023-05-14T05:15:29;40.72;;;17.58;;
65799;SDS011;52544;48.116;11.660;2023-05-14T05:17:55;36.38;;;17.77;;
65799;SDS011;52544;48.116;11.660;2023-05-14T05:20:20;40.72;;;18.63;;
65799;SDS011;52544;48.116;11.660;2023-05-14T05:22:46;43.08;;;17.33;;
65799;SDS011;52544;48.116;11.660;2023-05-14T05:25:11;40.10;;;18.08;;
65799;SDS011;52544;48.116;11.660;2023-05-14T05:27:37;40.53;;;17.67;;
65799;SDS011;52544;48.116;11.660;2023-05-14T05:30:02;39.38;;;17.10;;
65799;SDS011;52544;48.116;11.660;2023-05-14T05:32:28;39.45;;;16.88;;
65799;SDS011;52544;48.116;11.660;2023-05-14T05:34:53;40.90;;;17.05;;
65799;SDS011;52544;48.116;11.660;2023-05-14T05:37:19;41.45;;;17.55;;
65799;SDS011;52544;48.116;11.660;2023-05-14T05:39:44;33.63;;;15.52;;
65799;SDS011;52544;48.116;11.660;2023-05-14T05:42:12;38.08;;;17.55;;
65799;SDS011;52544;48.116;11.660;2023-05-14T05:44:37;38.88;;;16.75;;
65799;SDS011;52544;48.116;11.660;2023-05-14T05:47:02;34.17;;;16.25;;
65799;SDS011;52544;48.116;11.660;2023-05-14T05:49:28;43.20;;;18.05;;
65799;SDS011;52544;48.116;11.660;2023-05-14T05:51:53;37.47;;;16.83;;
65799;SDS011;52544;48.116;11.660;2023-05-14T05:54:19;37.28;;;17.20;;
65799;SDS011;52544;48.116;11.660;2023-05-14T05:56:44;40.60;;;16.27;;
65799;SDS011;52544;48.116;11.660;2023-05-14T05:59:10;36.50;;;16.83;;
65799;SDS011;52544;48.116;11.660;2023-05-14T06:01:35;34.72;;;16.88;;
65799;SDS011;52544;48.116;11.660;2023-05-14T06:04:01;35.38;;;17.00;;
65799;SDS011;52544;48.116;11.660;2023-05-14T06:06:28;38.95;;;16.77;;
65799;SDS011;52544;48.116;11.660;2023-05-14T06:08:53;31.75;;;15.68;;
65799;SDS011;52544;48.116;11.660;2023-05-14T06:11:19;38.47;;;17.15;;
65799;SDS011;52544;48.116;11.660;2023-05-14T06:13:45;36.85;;;16.50;;
65799;SDS011;52544;48.116;11.660;2023-05-14T06:16:11;38.95;;;17.25;;
65799;SDS011;52544;48.116;11.660;2023-05-14T06:18:36;38.70;;;17.48;;
65799;SDS011;52544;48.116;11.660;2023-05-14T06:21:01;38.40;;;17.20;;
65799;SDS011;52544;48.116;11.660;2023-05-14T06:23:28;38.90;;;17.55;;
65799;SDS011;52544;48.116;11.660;2023-05-14T06:25:54;37.90;;;16.75;;
65799;SDS011;52544;48.116;11.660;2023-05-14T06:28:19;38.42;;;16.58;;
65799;SDS011;52544;48.116;11.660;2023-05-14T06:30:44;36.97;;;17.58;;
65799;SDS011;52544;48.116;11.660;2023-05-14T06:33:10;38.55;;;17.30;;
65799;SDS011;52544;48.116;11.660;2023-05-14T06:35:37;39.47;;;17.02;;
65799;SDS011;52544;48.116;11.660;2023-05-14T06:38:03;40.55;;;18.02;;
65799;SDS011;52544;48.116;11.660;2023-05-14T06:40:28;38.85;;;17.55;;
65799;SDS011;52544;48.116;11.660;2023-05-14T06:42:53;37.97;;;17.33;;
65799;SDS011;52544;48.116;11.660;2023-05-14T06:45:19;37.00;;;16.63;;
65799;SDS011;52544;48.116;11.660;2023-05-14T06:47:44;35.33;;;15.20;;
65799;SDS011;52544;48.116;11.660;2023-05-14T06:50:10;36.03;;;16.80;;
65799;SDS011;52544;48.116;11.660;2023-05-14T06:52:35;41.40;;;16.88;;
65799;SDS011;52544;48.116;11.660;2023-05-14T06:55:01;44.17;;;16.38;;
65799;SDS011;52544;48.116;11.660;2023-05-14T06:57:26;32.60;;;15.48;;
65799;SDS011;52544;48.116;11.660;2023-05-14T06:59:51;38.97;;;17.60;;
65799;SDS011;52544;48.116;11.660;2023-05-14T07:02:17;32.25;;;15.75;;
65799;SDS011;52544;48.116;11.660;2023-05-14T07:04:42;34.50;;;15.93;;
65799;SDS011;52544;48.116;11.660;2023-05-14T07:07:08;33.17;;;15.68;;
65799;SDS011;52544;48.116;11.660;2023-05-14T07:09:34;34.85;;;16.02;;
65799;SDS011;52544;48.116;11.660;2023-05-14T07:12:00;33.45;;;16.73;;
65799;SDS011;52544;48.116;11.660;2023-05-14T07:14:25;39.05;;;17.65;;
65799;SDS011;52544;48.116;11.660;2023-05-14T07:16:50;35.90;;;17.05;;
65799;SDS011;52544;48.116;11.660;2023-05-14T07:19:16;35.45;;;15.75;;
65799;SDS011;52544;48.116;11.660;2023-05-14T07:21:41;33.03;;;15.30;;
65799;SDS011;52544;48.116;11.660;2023-05-14T07:24:07;37.90;;;16.20;;
65799;SDS011;52544;48.116;11.660;2023-05-14T07:26:32;33.08;;;15.95;;
65799;SDS011;52544;48.116;11.660;2023-05-14T07:28:58;35.03;;;16.85;;
65799;SDS011;52544;48.116;11.660;2023-05-14T07:31:23;41.88;;;17.98;;
65799;SDS011;52544;48.116;11.660;2023-05-14T07:33:48;33.63;;;16.17;;
65799;SDS011;52544;48.116;11.660;2023-05-14T07:36:14;33.85;;;15.60;;
65799;SDS011;52544;48.116;11.660;2023-05-14T07:38:39;33.47;;;15.82;;
65799;SDS011;52544;48.116;11.660;2023-05-14T07:41:05;31.95;;;15.25;;
65799;SDS011;52544;48.116;11.660;2023-05-14T07:43:30;31.60;;;14.98;;
65799;SDS011;52544;48.116;11.660;2023-05-14T07:45:56;38.55;;;15.82;;
65799;SDS011;52544;48.116;11.660;2023-05-14T07:48:21;28.85;;;15.32;;
65799;SDS011;52544;48.116;11.660;2023-05-14T07:50:47;31.38;;;15.15;;
65799;SDS011;52544;48.116;11.660;2023-05-14T07:53:13;31.27;;;15.80;;
65799;SDS011;52544;48.116;11.660;2023-05-14T07:55:38;28.92;;;13.88;;
65799;SDS011;52544;48.116;11.660;2023-05-14T07:58:04;29.83;;;14.57;;
65799;SDS011;52544;48.116;11.660;2023-05-14T08:00:29;27.23;;;14.20;;
65799;SDS011;52544;48.116;11.660;2023-05-14T08:02:55;30.15;;;14.48;;
65799;SDS011;52544;48.116;11.660;2023-05-14T08:05:20;26.90;;;13.55;;
65799;SDS011;52544;48.116;11.660;2023-05-14T08:07:46;30.88;;;13.07;;
65799;SDS011;52544;48.116;11.660;2023-05-14T08:10:12;24.08;;;12.43;;
65799;SDS011;52544;48.116;11.660;2023-05-14T08:12:37;28.40;;;12.63;;
65799;SDS011;52544;48.116;11.660;2023-05-14T08:15:03;26.08;;;11.73;;
65799;SDS011;52544;48.116;11.660;2023-05-14T08:17:29;22.70;;;11.38;;
65799;SDS011;52544;48.116;11.660;2023-05-14T08:19:55;25.33;;;13.30;;
65799;SDS011;52544;48.116;11.660;2023-05-14T08:22:20;28.30;;;12.68;;
65799;SDS011;52544;48.116;11.660;2023-05-14T08:24:45;23.40;;;11.80;;
65799;SDS011;52544;48.116;11.660;2023-05-14T08:27:11;28.30;;;12.52;;
65799;SDS011;52544;48.116;11.660;2023-05-14T08:29:36;25.60;;;11.90;;
65799;SDS011;52544;48.116;11.660;2023-05-14T08:32:02;25.55;;;13.02;;
65799;SDS011;52544;48.116;11.660;2023-05-14T08:34:27;25.80;;;12.27;;
65799;SDS011;52544;48.116;11.660;2023-05-14T08:36:53;25.20;;;12.63;;
65799;SDS011;52544;48.116;11.660;2023-05-14T08:39:19;24.35;;;12.07;;
65799;SDS011;52544;48.116;11.660;2023-05-14T08:41:44;21.10;;;11.38;;
65799;SDS011;52544;48.116;11.660;2023-05-14T08:44:14;24.63;;;12.23;;
65799;SDS011;52544;48.116;11.660;2023-05-14T08:46:43;24.73;;;12.65;;
65799;SDS011;52544;48.116;11.660;2023-05-14T08:51:56;25.60;;;13.05;;
65799;SDS011;52544;48.116;11.660;2023-05-14T08:54:23;24.50;;;12.68;;
65799;SDS011;52544;48.116;11.660;2023-05-14T08:56:51;26.55;;;13.40;;
65799;SDS011;52544;48.116;11.660;2023-05-14T08:59:17;22.60;;;11.57;;
65799;SDS011;52544;48.116;11.660;2023-05-14T09:01:45;26.90;;;12.25;;
65799;SDS011;52544;48.116;11.660;2023-05-14T09:04:12;24.27;;;12.18;;
65799;SDS011;52544;48.116;11.660;2023-05-14T09:06:39;25.10;;;11.95;;
65799;SDS011;52544;48.116;11.660;2023-05-14T09:09:07;21.60;;;10.85;;
65799;SDS011;52544;48.116;11.660;2023-05-14T09:11:39;24.63;;;11.88;;
65799;SDS011;52544;48.116;11.660;2023-05-14T09:14:11;23.17;;;10.85;;
65799;SDS011;52544;48.116;11.660;2023-05-14T09:16:37;20.67;;;11.25;;
65799;SDS011;52544;48.116;11.660;2023-05-14T09:19:04;20.98;;;10.70;;
65799;SDS011;52544;48.116;11.660;2023-05-14T09:21:30;16.90;;;9.52;;
65799;SDS011;52544;48.116;11.660;2023-05-14T09:23:56;21.85;;;10.45;;
65799;SDS011;52544;48.116;11.660;2023-05-14T09:26:25;20.10;;;10.73;;
65799;SDS011;52544;48.116;11.660;2023-05-14T09:28:54;19.20;;;10.65;;
65799;SDS011;52544;48.116;11.660;2023-05-14T09:31:25;18.88;;;10.20;;
65799;SDS011;52544;48.116;11.660;2023-05-14T09:33:51;17.85;;;9.32;;
65799;SDS011;52544;48.116;11.660;2023-05-14T09:36:17;24.20;;;10.50;;
65799;SDS011;52544;48.116;11.660;2023-05-14T09:38:44;22.63;;;10.40;;
65799;SDS011;52544;48.116;11.660;2023-05-14T09:41:09;19.23;;;9.85;;
65799;SDS011;52544;48.116;11.660;2023-05-14T09:43:35;18.38;;;9.60;;
65799;SDS011;52544;48.116;11.660;2023-05-14T09:46:00;16.88;;;9.15;;
65799;SDS011;52544;48.116;11.660;2023-05-14T09:48:26;17.00;;;9.70;;
65799;SDS011;52544;48.116;11.660;2023-05-14T09:50:51;17.30;;;9.88;;
65799;SDS011;52544;48.116;11.660;2023-05-14T09:53:17;16.05;;;9.50;;
65799;SDS011;52544;48.116;11.660;2023-05-14T09:55:42;22.98;;;9.32;;
65799;SDS011;52544;48.116;11.660;2023-05-14T09:58:09;15.25;;;8.75;;
65799;SDS011;52544;48.116;11.660;2023-05-14T10:00:34;16.05;;;8.32;;
65799;SDS011;52544;48.116;11.660;2023-05-14T10:03:03;17.00;;;9.43;;
65799;SDS011;52544;48.116;11.660;2023-05-14T10:05:34;16.80;;;9.05;;
65799;SDS011;52544;48.116;11.660;2023-05-14T10:08:00;14.13;;;8.02;;
65799;SDS011;52544;48.116;11.660;2023-05-14T10:10:30;13.57;;;7.57;;
65799;SDS011;52544;48.116;11.660;2023-05-14T10:12:57;20.35;;;8.32;;
65799;SDS011;52544;48.116;11.660;2023-05-14T10:15:47;18.55;;;8.20;;
65799;SDS011;52544;48.116;11.660;2023-05-14T10:18:24;12.23;;;7.43;;
65799;SDS011;52544;48.116;11.660;2023-05-14T10:21:04;16.75;;;8.13;;
65799;SDS011;52544;48.116;11.660;2023-05-14T10:23:30;14.18;;;7.78;;
65799;SDS011;52544;48.116;11.660;2023-05-14T10:25:57;13.15;;;7.55;;
65799;SDS011;52544;48.116;11.660;2023-05-14T10:28:23;15.38;;;8.20;;
65799;SDS011;52544;48.116;11.660;2023-05-14T10:30:49;14.30;;;8.07;;
65799;SDS011;52544;48.116;11.660;2023-05-14T10:33:15;16.23;;;8.10;;
65799;SDS011;52544;48.116;11.660;2023-05-14T10:38:36;14.38;;;7.57;;
65799;SDS011;52544;48.116;11.660;2023-05-14T10:41:35;14.77;;;8.02;;
65799;SDS011;52544;48.116;11.660;2023-05-14T10:43:54;13.13;;;7.57;;
65799;SDS011;52544;48.116;11.660;2023-05-14T10:46:21;15.27;;;8.45;;
65799;SDS011;52544;48.116;11.660;2023-05-14T10:48:47;15.15;;;8.15;;
65799;SDS011;52544;48.116;11.660;2023-05-14T10:51:13;14.82;;;7.40;;
65799;SDS011;52544;48.116;11.660;2023-05-14T10:53:41;14.25;;;7.22;;
65799;SDS011;52544;48.116;11.660;2023-05-14T10:56:08;12.20;;;7.18;;
65799;SDS011;52544;48.116;11.660;2023-05-14T10:58:35;12.82;;;7.30;;
65799;SDS011;52544;48.116;11.660;2023-05-14T11:01:06;12.23;;;7.32;;
65799;SDS011;52544;48.116;11.660;2023-05-14T11:03:37;17.05;;;8.02;;
65799;SDS011;52544;48.116;11.660;2023-05-14T11:06:08;12.27;;;7.50;;
65799;SDS011;52544;48.116;11.660;2023-05-14T11:08:35;13.02;;;7.65;;
65799;SDS011;52544;48.116;11.660;2023-05-14T11:11:01;13.27;;;7.68;;
65799;SDS011;52544;48.116;11.660;2023-05-14T11:13:27;13.98;;;7.60;;
65799;SDS011;52544;48.116;11.660;2023-05-14T11:15:52;12.48;;;7.13;;
65799;SDS011;52544;48.116;11.660;2023-05-14T11:18:28;13.70;;;7.53;;
65799;SDS011;52544;48.116;11.660;2023-05-14T11:21:00;12.57;;;6.97;;
65799;SDS011;52544;48.116;11.660;2023-05-14T11:23:26;14.80;;;7.72;;
65799;SDS011;52544;48.116;11.660;2023-05-14T11:25:52;11.95;;;7.05;;
65799;SDS011;52544;48.116;11.660;2023-05-14T11:28:22;12.45;;;7.25;;
65799;SDS011;52544;48.116;11.660;2023-05-14T11:30:49;11.80;;;6.35;;
65799;SDS011;52544;48.116;11.660;2023-05-14T11:33:15;12.13;;;7.00;;
65799;SDS011;52544;48.116;11.660;2023-05-14T11:35:41;12.18;;;6.95;;
65799;SDS011;52544;48.116;11.660;2023-05-14T11:38:19;11.48;;;6.53;;
65799;SDS011;52544;48.116;11.660;2023-05-14T11:40:54;10.60;;;6.20;;
65799;SDS011;52544;48.116;11.660;2023-05-14T11:43:21;11.00;;;6.32;;
65799;SDS011;52544;48.116;11.660;2023-05-14T11:45:50;10.73;;;6.30;;
65799;SDS011;52544;48.116;11.660;2023-05-14T11:48:19;10.15;;;6.07;;
65799;SDS011;52544;48.116;11.660;2023-05-14T11:50:46;9.07;;;5.78;;
65799;SDS011;52544;48.116;11.660;2023-05-14T11:53:17;8.40;;;5.32;;
65799;SDS011;52544;48.116;11.660;2023-05-14T11:55:44;8.85;;;5.93;;
65799;SDS011;52544;48.116;11.660;2023-05-14T11:58:10;8.70;;;5.53;;
65799;SDS011;52544;48.116;11.660;2023-05-14T12:00:37;9.18;;;5.53;;
65799;SDS011;52544;48.116;11.660;2023-05-14T12:03:02;7.22;;;5.20;;
65799;SDS011;52544;48.116;11.660;2023-05-14T12:05:28;8.23;;;5.45;;
65799;SDS011;52544;48.116;11.660;2023-05-14T12:07:53;8.30;;;5.40;;
65799;SDS011;52544;48.116;11.660;2023-05-14T12:10:20;8.77;;;5.35;;
65799;SDS011;52544;48.116;11.660;2023-05-14T12:12:46;8.82;;;5.47;;
65799;SDS011;52544;48.116;11.660;2023-05-14T12:15:12;7.45;;;5.60;;
65799;SDS011;52544;48.116;11.660;2023-05-14T12:17:39;8.50;;;5.32;;
65799;SDS011;52544;48.116;11.660;2023-05-14T12:20:07;10.55;;;6.45;;
65799;SDS011;52544;48.116;11.660;2023-05-14T12:22:34;9.20;;;5.63;;
65799;SDS011;52544;48.116;11.660;2023-05-14T12:24:59;10.52;;;6.07;;
65799;SDS011;52544;48.116;11.660;2023-05-14T12:27:26;7.20;;;4.70;;
65799;SDS011;52544;48.116;11.660;2023-05-14T12:32:26;8.43;;;5.18;;
65799;SDS011;52544;48.116;11.660;2023-05-14T12:34:51;8.75;;;5.40;;
65799;SDS011;52544;48.116;11.660;2023-05-14T12:37:17;10.70;;;6.05;;
65799;SDS011;52544;48.116;11.660;2023-05-14T12:39:43;10.57;;;6.25;;
65799;SDS011;52544;48.116;11.660;2023-05-14T12:42:08;9.57;;;5.97;;
65799;SDS011;52544;48.116;11.660;2023-05-14T12:44:34;10.45;;;5.38;;
65799;SDS011;52544;48.116;11.660;2023-05-14T12:46:59;8.90;;;5.32;;
65799;SDS011;52544;48.116;11.660;2023-05-14T12:49:25;8.65;;;5.20;;
65799;SDS011;52544;48.116;11.660;2023-05-14T12:51:50;7.25;;;4.65;;
65799;SDS011;52544;48.116;11.660;2023-05-14T12:54:15;8.15;;;5.35;;
65799;SDS011;52544;48.116;11.660;2023-05-14T12:56:41;7.40;;;4.72;;
65799;SDS011;52544;48.116;11.660;2023-05-14T12:59:06;8.00;;;5.38;;
65799;SDS011;52544;48.116;11.660;2023-05-14T13:01:33;8.50;;;5.25;;
65799;SDS011;52544;48.116;11.660;2023-05-14T13:03:58;8.10;;;4.88;;
65799;SDS011;52544;48.116;11.660;2023-05-14T13:06:24;6.43;;;4.82;;
65799;SDS011;52544;48.116;11.660;2023-05-14T13:08:49;8.40;;;4.70;;
65799;SDS011;52544;48.116;11.660;2023-05-14T13:11:15;7.43;;;5.35;;
65799;SDS011;52544;48.116;11.660;2023-05-14T13:13:40;7.65;;;4.68;;
65799;SDS011;52544;48.116;11.660;2023-05-14T13:16:05;8.25;;;5.05;;
65799;SDS011;52544;48.116;11.660;2023-05-14T13:18:31;7.03;;;5.18;;
65799;SDS011;52544;48.116;11.660;2023-05-14T13:20:56;6.95;;;4.50;;
65799;SDS011;52544;48.116;11.660;2023-05-14T13:23:22;5.85;;;4.35;;
65799;SDS011;52544;48.116;11.660;2023-05-14T13:25:47;7.93;;;4.50;;
65799;SDS011;52544;48.116;11.660;2023-05-14T13:28:13;9.18;;;5.50;;
65799;SDS011;52544;48.116;11.660;2023-05-14T13:30:38;6.13;;;4.40;;
65799;SDS011;52544;48.116;11.660;2023-05-14T13:33:04;6.72;;;4.70;;
65799;SDS011;52544;48.116;11.660;2023-05-14T13:35:29;7.07;;;5.13;;
65799;SDS011;52544;48.116;11.660;2023-05-14T13:37:55;8.60;;;4.82;;
65799;SDS011;52544;48.116;11.660;2023-05-14T13:40:20;6.38;;;4.38;;
65799;SDS011;52544;48.116;11.660;2023-05-14T13:42:46;8.52;;;4.60;;
65799;SDS011;52544;48.116;11.660;2023-05-14T13:45:11;6.32;;;4.28;;
65799;SDS011;52544;48.116;11.660;2023-05-14T13:47:37;9.65;;;4.60;;
65799;SDS011;52544;48.116;11.660;2023-05-14T13:50:03;6.78;;;4.68;;
65799;SDS011;52544;48.116;11.660;2023-05-14T13:52:28;6.20;;;4.50;;
65799;SDS011;52544;48.116;11.660;2023-05-14T13:54:54;6.30;;;4.55;;
65799;SDS011;52544;48.116;11.660;2023-05-14T13:57:20;7.97;;;3.97;;
65799;SDS011;52544;48.116;11.660;2023-05-14T13:59:46;5.65;;;3.85;;
65799;SDS011;52544;48.116;11.660;2023-05-14T14:02:11;7.05;;;4.30;;
65799;SDS011;52544;48.116;11.660;2023-05-14T14:04:37;7.47;;;4.35;;
65799;SDS011;52544;48.116;11.660;2023-05-14T14:07:02;7.07;;;4.75;;
65799;SDS011;52544;48.116;11.660;2023-05-14T14:09:28;6.32;;;4.43;;
65799;SDS011;52544;48.116;11.660;2023-05-14T14:11:59;5.68;;;4.18;;
65799;SDS011;52544;48.116;11.660;2023-05-14T14:14:25;11.40;;;4.78;;
65799;SDS011;52544;48.116;11.660;2023-05-14T14:16:51;4.97;;;3.47;;
65799;SDS011;52544;48.116;11.660;2023-05-14T14:19:17;6.05;;;4.00;;
65799;SDS011;52544;48.116;11.660;2023-05-14T14:21:43;5.10;;;3.78;;
65799;SDS011;52544;48.116;11.660;2023-05-14T14:24:08;8.70;;;4.20;;
65799;SDS011;52544;48.116;11.660;2023-05-14T14:26:33;5.43;;;3.63;;